LFBZ 211130Z AUTO 04006KT 360V060 9999 FEW014 SCT019 04/01 Q1034 NOSIG

ElémentsDécodage
LFBZ Station météo située sur l'aérodrome de BIARRITZ Bayonne-Anglet
211130Z émis le 21 du mois à 11h30 UTC
AUTO Bulletin édité par un automate
04006KT vent du 040°, 06 noeuds
360V060 vent de direction variable entre 360° et 060°
9999 visibilité horizontale supérieure à 10 Km
FEW014 nuages rares (1/8 à 2/8) à 1400 pieds
SCT019 nuages épars (3/8 à 4/8) à 1900 pieds
04/01 température 04°C, point de rosée 01°C
 soit une humidité relative de 81%
Q1034 la pression au niveau de la mer (QNH) est de 1034 hPa
NOSIG Pas de changement significatif prévu au cours des deux heures suivant l'heure de l'observation